createdAt,value
2022-11-02T00:00:10.514Z,3.53
2022-11-02T00:03:12.143Z,3.20
2022-11-02T00:06:13.812Z,3.17
2022-11-02T00:09:15.314Z,3.38
2022-11-02T00:12:16.863Z,2.58
2022-11-02T00:15:19.308Z,3.45
2022-11-02T00:18:20.852Z,2.78
2022-11-02T00:21:24.550Z,3.42
2022-11-02T00:24:26.082Z,2.75
2022-11-02T00:27:28.768Z,3.30
2022-11-02T00:30:30.352Z,2.97
2022-11-02T00:33:32.010Z,2.63
2022-11-02T00:36:33.949Z,2.83
2022-11-02T00:39:35.573Z,2.45
2022-11-02T00:42:37.097Z,3.10
2022-11-02T00:45:38.662Z,3.13
2022-11-02T00:48:40.276Z,2.90
2022-11-02T00:51:43.260Z,3.28
2022-11-02T00:54:44.821Z,3.20
2022-11-02T00:57:46.376Z,3.72
2022-11-02T01:00:47.912Z,2.67
2022-11-02T01:03:49.556Z,3.10
2022-11-02T01:06:51.206Z,3.40
2022-11-02T01:09:52.767Z,2.92
2022-11-02T01:12:54.373Z,3.15
2022-11-02T01:15:55.913Z,3.40
2022-11-02T01:18:57.899Z,3.00
2022-11-02T01:21:59.456Z,2.70
2022-11-02T01:25:01.006Z,3.00
2022-11-02T01:28:02.889Z,3.38
2022-11-02T01:31:05.340Z,3.05
2022-11-02T01:34:07.584Z,3.33
2022-11-02T01:37:10.285Z,2.70
2022-11-02T01:40:12.030Z,2.92
2022-11-02T01:43:24.851Z,3.08
2022-11-02T01:46:42.739Z,3.00
2022-11-02T01:49:49.930Z,2.50
2022-11-02T01:52:53.102Z,3.42
2022-11-02T01:55:55.259Z,3.67
2022-11-02T01:59:00.384Z,2.55
2022-11-02T02:02:05.516Z,2.88
2022-11-02T02:05:10.647Z,2.90
2022-11-02T02:08:14.433Z,2.50
2022-11-02T02:11:34.225Z,2.83
2022-11-02T02:14:36.306Z,3.07
2022-11-02T02:17:44.455Z,2.95
2022-11-02T02:21:03.966Z,3.15
2022-11-02T02:24:50.240Z,2.78
2022-11-02T02:28:07.825Z,3.08
2022-11-02T02:31:42.873Z,2.70
2022-11-02T02:34:56.005Z,4.15
2022-11-02T02:38:01.819Z,3.45
2022-11-02T02:41:18.646Z,3.25
2022-11-02T02:44:22.848Z,3.97
2022-11-02T02:47:27.683Z,2.88
2022-11-02T02:50:41.647Z,3.03
2022-11-02T02:54:08.369Z,2.47
2022-11-02T02:57:15.011Z,3.30
2022-11-02T03:00:18.011Z,2.88
2022-11-02T03:03:25.981Z,2.72
2022-11-02T03:06:31.403Z,2.95
2022-11-02T03:09:35.230Z,3.15
2022-11-02T03:13:02.530Z,3.50
2022-11-02T03:16:32.090Z,3.00
2022-11-02T03:19:37.969Z,2.72
2022-11-02T03:23:05.456Z,3.13
2022-11-02T03:26:22.357Z,3.00
2022-11-02T03:29:36.406Z,3.42
2022-11-02T03:32:55.683Z,3.13
2022-11-02T03:36:07.673Z,3.03
2022-11-02T03:39:12.422Z,3.00
2022-11-02T03:42:20.038Z,2.53
2022-11-02T03:45:26.145Z,2.63
2022-11-02T03:48:32.341Z,2.78
2022-11-02T03:51:37.354Z,3.17
2022-11-02T03:54:44.880Z,2.67
2022-11-02T03:57:48.532Z,2.72
2022-11-02T04:01:03.610Z,2.80
2022-11-02T04:04:05.524Z,3.08
2022-11-02T04:07:07.165Z,2.80
2022-11-02T04:10:09.002Z,3.22
2022-11-02T04:13:29.095Z,2.95
2022-11-02T04:16:30.716Z,3.05
2022-11-02T04:19:32.221Z,2.50
2022-11-02T04:23:06.368Z,3.08
2022-11-02T04:26:07.925Z,3.42
2022-11-02T04:29:11.052Z,2.70
2022-11-02T04:32:12.592Z,2.80
2022-11-02T04:35:14.194Z,2.90
2022-11-02T04:38:34.354Z,2.88
2022-11-02T04:41:41.834Z,2.70
2022-11-02T04:44:43.944Z,2.60
2022-11-02T04:47:45.688Z,3.03
2022-11-02T04:50:47.191Z,2.72
2022-11-02T04:53:49.879Z,2.55
2022-11-02T04:56:51.575Z,2.60
2022-11-02T04:59:53.097Z,2.45
2022-11-02T05:02:54.653Z,2.88
2022-11-02T05:05:56.279Z,2.45
2022-11-02T05:08:57.761Z,2.65
2022-11-02T05:11:59.413Z,2.70
2022-11-02T05:15:00.938Z,2.25
2022-11-02T05:18:02.920Z,2.70
2022-11-02T05:21:05.086Z,2.70
2022-11-02T05:24:07.091Z,2.92
2022-11-02T05:27:10.203Z,2.60
2022-11-02T05:30:12.331Z,2.90
2022-11-02T05:33:14.371Z,2.53
2022-11-02T05:36:16.371Z,3.00
2022-11-02T05:39:17.908Z,2.38
2022-11-02T05:42:19.476Z,2.55
2022-11-02T05:45:23.699Z,2.70
2022-11-02T05:48:27.926Z,2.80
2022-11-02T05:51:29.449Z,2.97
2022-11-02T05:54:30.986Z,2.88
2022-11-02T05:57:34.826Z,2.63
2022-11-02T06:00:36.379Z,3.42
2022-11-02T06:03:38.134Z,2.80
2022-11-02T06:06:39.743Z,3.65
2022-11-02T06:09:41.420Z,2.65
2022-11-02T06:12:42.988Z,2.90
2022-11-02T06:15:44.519Z,2.40
2022-11-02T06:18:46.133Z,3.42
2022-11-02T06:21:48.630Z,2.67
2022-11-02T06:24:50.358Z,2.33
2022-11-02T06:27:56.841Z,2.70
2022-11-02T06:30:58.682Z,3.00
2022-11-02T06:34:00.245Z,3.03
2022-11-02T06:37:01.808Z,2.55
2022-11-02T06:40:03.432Z,2.20
2022-11-02T06:43:15.929Z,3.30
2022-11-02T06:46:18.814Z,2.75
2022-11-02T06:49:20.499Z,2.88
2022-11-02T06:52:22.021Z,2.88
2022-11-02T06:55:24.585Z,3.00
2022-11-02T06:58:26.442Z,3.15
2022-11-02T07:01:28.149Z,2.90
2022-11-02T07:04:29.864Z,3.00
2022-11-02T07:07:31.422Z,2.25
2022-11-02T07:10:35.212Z,2.63
2022-11-02T07:13:36.796Z,2.88
2022-11-02T07:16:38.344Z,2.58
2022-11-02T07:19:39.904Z,2.83
2022-11-02T07:22:41.638Z,3.47
2022-11-02T07:25:43.258Z,3.20
2022-11-02T07:28:46.016Z,3.08
2022-11-02T07:31:47.964Z,2.85
2022-11-02T07:34:49.546Z,3.25
2022-11-02T07:37:58.941Z,2.58
2022-11-02T07:41:00.470Z,2.90
2022-11-02T07:44:02.055Z,2.85
2022-11-02T07:47:03.592Z,3.13
2022-11-02T07:50:05.723Z,3.10
2022-11-02T07:53:07.526Z,2.78
2022-11-02T07:56:09.340Z,2.67
2022-11-02T07:59:12.704Z,3.25
2022-11-02T08:02:14.496Z,3.28
2022-11-02T08:05:16.053Z,2.97
2022-11-02T08:08:22.933Z,2.67
2022-11-02T08:11:24.442Z,3.33
2022-11-02T08:14:25.979Z,3.72
2022-11-02T08:17:27.510Z,3.03
2022-11-02T08:20:29.751Z,3.22
2022-11-02T08:23:31.293Z,3.33
2022-11-02T08:26:32.812Z,2.08
2022-11-02T08:29:35.181Z,3.45
2022-11-02T08:32:36.922Z,3.28
2022-11-02T08:35:39.453Z,3.00
2022-11-02T08:38:42.212Z,3.58
2022-11-02T08:41:43.803Z,3.15
2022-11-02T08:44:45.349Z,3.50
2022-11-02T08:47:46.858Z,3.05
2022-11-02T08:50:49.278Z,3.25
2022-11-02T08:53:52.178Z,3.20
2022-11-02T08:56:53.742Z,3.60
2022-11-02T08:59:55.372Z,3.30
2022-11-02T09:03:12.819Z,3.92
2022-11-02T09:06:14.363Z,3.65
2022-11-02T09:09:15.923Z,4.07
2022-11-02T09:12:17.409Z,3.97
2022-11-02T09:15:19.290Z,3.15
2022-11-02T09:18:21.451Z,3.03
2022-11-02T09:21:22.974Z,2.85
2022-11-02T09:24:24.473Z,2.97
2022-11-02T09:27:26.009Z,3.25
2022-11-02T09:30:28.707Z,3.13
2022-11-02T09:33:30.346Z,3.30
2022-11-02T09:36:31.872Z,2.97
2022-11-02T09:39:33.411Z,3.47
2022-11-02T09:42:53.228Z,3.65
2022-11-02T09:46:08.580Z,2.97
2022-11-02T09:49:16.900Z,3.35
2022-11-02T09:52:27.574Z,3.38
2022-11-02T09:58:40.828Z,2.83
2022-11-02T10:01:48.128Z,3.42
2022-11-02T10:05:07.604Z,3.10
2022-11-02T10:08:21.084Z,3.03
2022-11-02T10:11:51.752Z,3.55
2022-11-02T10:15:01.978Z,3.13
2022-11-02T10:18:04.640Z,3.50
2022-11-02T10:21:14.013Z,3.05
2022-11-02T10:24:35.884Z,3.72
2022-11-02T10:27:39.075Z,3.38
2022-11-02T10:30:43.105Z,2.85
2022-11-02T10:33:44.674Z,3.17
2022-11-02T10:37:16.978Z,3.10
2022-11-02T10:40:34.276Z,2.88
2022-11-02T10:43:59.534Z,3.65
2022-11-02T10:47:19.423Z,3.17
2022-11-02T10:51:09.456Z,2.42
2022-11-02T10:54:19.461Z,2.40
2022-11-02T10:57:27.074Z,2.70
2022-11-02T11:00:32.484Z,2.92
2022-11-02T11:03:34.573Z,2.58
2022-11-02T11:06:39.413Z,3.65
2022-11-02T11:09:52.611Z,3.15
2022-11-02T11:12:56.000Z,2.75
2022-11-02T11:15:57.703Z,3.08
2022-11-02T11:22:35.430Z,2.72
2022-11-02T11:25:37.219Z,2.40
2022-11-02T11:28:55.701Z,2.65
2022-11-02T11:31:57.618Z,2.60
2022-11-02T11:35:15.209Z,2.40
2022-11-02T11:38:19.940Z,2.45
2022-11-02T11:41:22.882Z,5.35
2022-11-02T11:44:24.779Z,2.70
2022-11-02T11:47:37.460Z,3.38
2022-11-02T11:50:47.439Z,3.00
2022-11-02T11:54:17.722Z,2.22
2022-11-02T11:57:32.817Z,2.72
2022-11-02T12:00:34.525Z,2.92
2022-11-02T12:03:55.389Z,3.08
2022-11-02T12:07:03.244Z,2.95
2022-11-02T12:10:20.740Z,2.42
2022-11-02T12:13:54.030Z,3.13
2022-11-02T12:17:17.346Z,3.35
2022-11-02T12:20:38.956Z,2.45
2022-11-02T12:24:01.143Z,2.38
2022-11-02T12:27:34.856Z,2.80
2022-11-02T12:30:54.054Z,2.50
2022-11-02T12:34:13.410Z,2.65
2022-11-02T12:37:40.069Z,2.22
2022-11-02T12:41:02.118Z,2.63
2022-11-02T12:44:45.594Z,2.83
2022-11-02T12:48:04.105Z,2.60
2022-11-02T12:51:19.403Z,2.72
2022-11-02T12:54:25.169Z,2.72
2022-11-02T12:57:31.563Z,2.70
2022-11-02T13:00:38.181Z,3.00
2022-11-02T13:04:05.708Z,2.95
2022-11-02T13:07:13.551Z,2.80
2022-11-02T13:10:26.547Z,2.90
2022-11-02T13:13:43.729Z,2.83
2022-11-02T13:17:03.229Z,2.80
2022-11-02T13:20:18.501Z,2.47
2022-11-02T13:23:24.959Z,3.33
2022-11-02T13:26:47.463Z,2.50
2022-11-02T13:29:50.774Z,2.95
2022-11-02T13:33:11.247Z,2.85
2022-11-02T13:36:14.390Z,2.33
2022-11-02T13:39:31.878Z,2.85
2022-11-02T13:43:02.834Z,3.75
2022-11-02T13:46:10.746Z,3.10
2022-11-02T13:49:23.522Z,2.70
2022-11-02T13:52:47.518Z,2.60
2022-11-02T13:55:56.984Z,2.80
2022-11-02T13:59:17.676Z,2.65
2022-11-02T14:05:35.382Z,3.25
2022-11-02T14:09:04.422Z,3.47
2022-11-02T14:12:22.803Z,3.33
2022-11-02T14:15:32.738Z,3.10
2022-11-02T14:18:34.461Z,3.55
2022-11-02T14:21:45.892Z,3.33
2022-11-02T14:24:51.809Z,3.55
2022-11-02T14:27:56.526Z,3.05
2022-11-02T14:31:05.959Z,3.03
2022-11-02T14:34:33.984Z,3.25
2022-11-02T14:38:10.518Z,3.00
2022-11-02T14:41:18.449Z,3.42
2022-11-02T14:44:35.831Z,3.28
2022-11-02T14:47:39.010Z,2.50
2022-11-02T14:50:40.664Z,3.22
2022-11-02T14:53:42.476Z,3.08
2022-11-02T14:56:48.865Z,3.00
2022-11-02T14:59:53.316Z,3.22
2022-11-02T15:02:55.266Z,2.75
2022-11-02T15:06:03.984Z,3.08
2022-11-02T15:09:05.757Z,3.05
2022-11-02T15:12:27.838Z,3.90
2022-11-02T15:15:36.626Z,3.45
2022-11-02T15:18:40.408Z,2.92
2022-11-02T15:21:42.100Z,3.20
2022-11-02T15:24:45.175Z,3.55
2022-11-02T15:27:50.562Z,3.03
2022-11-02T15:31:25.701Z,3.28
2022-11-02T15:34:43.971Z,2.67
2022-11-02T15:38:11.188Z,2.90
2022-11-02T15:41:45.960Z,3.03
2022-11-02T15:45:14.470Z,3.13
2022-11-02T15:48:38.794Z,2.95
2022-11-02T15:52:02.787Z,2.63
2022-11-02T15:55:21.565Z,3.20
2022-11-02T15:58:29.543Z,3.28
2022-11-02T16:01:31.246Z,2.92
2022-11-02T16:04:34.969Z,3.72
2022-11-02T16:07:57.460Z,2.97
2022-11-02T16:11:35.854Z,3.10
2022-11-02T16:14:37.672Z,3.75
2022-11-02T16:17:39.591Z,9.32
2022-11-02T16:20:45.525Z,23.67
2022-11-02T16:23:53.773Z,12.63
2022-11-02T16:26:55.361Z,7.43
2022-11-02T16:29:56.972Z,5.20
2022-11-02T16:33:03.067Z,4.78
2022-11-02T16:36:09.125Z,4.63
2022-11-02T16:39:19.044Z,4.05
2022-11-02T16:42:24.886Z,3.13
2022-11-02T16:45:29.538Z,4.68
2022-11-02T16:48:33.206Z,4.00
2022-11-02T16:51:34.817Z,4.18
2022-11-02T16:54:41.594Z,3.97
2022-11-02T16:57:45.550Z,3.70
2022-11-02T17:01:18.099Z,3.30
2022-11-02T17:04:21.524Z,3.05
2022-11-02T17:07:34.199Z,4.00
2022-11-02T17:10:37.875Z,3.30
2022-11-02T17:13:53.410Z,3.40
2022-11-02T17:17:28.463Z,3.70
2022-11-02T17:20:30.047Z,3.10
2022-11-02T17:23:34.551Z,3.33
2022-11-02T17:26:37.460Z,3.55
2022-11-02T17:29:40.090Z,3.35
2022-11-02T17:32:42.976Z,3.80
2022-11-02T17:35:49.451Z,3.90
2022-11-02T17:38:51.222Z,3.42
2022-11-02T17:42:16.047Z,3.38
2022-11-02T17:45:34.353Z,3.22
2022-11-02T17:48:35.884Z,3.40
2022-11-02T17:51:38.621Z,3.13
2022-11-02T17:54:40.196Z,3.05
2022-11-02T17:57:41.843Z,2.85
2022-11-02T18:00:43.647Z,2.55
2022-11-02T18:03:45.220Z,2.65
2022-11-02T18:06:46.773Z,3.05
2022-11-02T18:09:49.145Z,2.53
2022-11-02T18:12:52.025Z,2.85
2022-11-02T18:15:53.666Z,3.50
2022-11-02T18:18:55.317Z,3.05
2022-11-02T18:21:56.871Z,3.70
2022-11-02T18:24:58.458Z,3.50
2022-11-02T18:28:01.837Z,3.10
2022-11-02T18:31:06.570Z,3.53
2022-11-02T18:34:09.415Z,2.75
2022-11-02T18:37:10.975Z,3.03
2022-11-02T18:40:15.405Z,2.95
2022-11-02T18:43:16.898Z,4.57
2022-11-02T18:46:18.732Z,3.83
2022-11-02T18:49:20.230Z,2.92
2022-11-02T18:52:22.583Z,3.35
2022-11-02T18:55:24.279Z,3.60
2022-11-02T18:58:26.210Z,3.13
2022-11-02T19:01:28.235Z,3.05
2022-11-02T19:04:30.939Z,3.38
2022-11-02T19:07:51.170Z,3.28
2022-11-02T19:10:52.747Z,2.92
2022-11-02T19:13:54.304Z,3.00
2022-11-02T19:16:56.097Z,3.28
2022-11-02T19:19:57.887Z,3.47
2022-11-02T19:22:59.449Z,3.50
2022-11-02T19:26:00.998Z,3.38
2022-11-02T19:29:06.060Z,2.85
2022-11-02T19:32:08.450Z,3.67
2022-11-02T19:35:09.994Z,2.90
2022-11-02T19:38:11.667Z,2.58
2022-11-02T19:41:15.296Z,3.00
2022-11-02T19:44:16.853Z,3.28
2022-11-02T19:47:18.411Z,3.03
2022-11-02T19:50:19.951Z,3.15
2022-11-02T19:53:47.897Z,3.17
2022-11-02T19:56:49.452Z,2.80
2022-11-02T19:59:51.414Z,3.83
2022-11-02T20:02:53.557Z,3.08
2022-11-02T20:05:59.900Z,3.58
2022-11-02T20:09:04.106Z,3.47
2022-11-02T20:12:07.434Z,3.50
2022-11-02T20:15:11.298Z,3.05
2022-11-02T20:18:19.583Z,3.50
2022-11-02T20:21:33.503Z,3.13
2022-11-02T20:24:37.094Z,4.00
2022-11-02T20:27:40.665Z,3.03
2022-11-02T20:30:43.014Z,3.47
2022-11-02T20:33:44.783Z,3.63
2022-11-02T20:36:47.385Z,3.35
2022-11-02T20:39:49.705Z,3.30
2022-11-02T20:42:51.314Z,3.78
2022-11-02T20:46:23.652Z,3.25
2022-11-02T20:49:48.764Z,3.65
2022-11-02T20:52:45.750Z,3.33
2022-11-02T20:55:47.335Z,2.97
2022-11-02T20:58:55.511Z,3.15
2022-11-02T21:01:57.557Z,2.97
2022-11-02T21:04:59.961Z,3.70
2022-11-02T21:08:01.526Z,3.28
2022-11-02T21:11:04.184Z,3.38
2022-11-02T21:14:05.754Z,3.20
2022-11-02T21:17:07.352Z,3.65
2022-11-02T21:23:32.137Z,3.53
2022-11-02T21:26:33.704Z,3.38
2022-11-02T21:29:35.290Z,4.30
2022-11-02T21:32:36.796Z,3.47
2022-11-02T21:35:38.412Z,3.40
2022-11-02T21:38:40.698Z,3.58
2022-11-02T21:41:42.343Z,3.70
2022-11-02T21:44:43.862Z,3.75
2022-11-02T21:47:45.449Z,3.03
2022-11-02T21:50:58.344Z,3.38
2022-11-02T21:53:59.984Z,3.75
2022-11-02T21:57:01.484Z,3.38
2022-11-02T22:00:03.600Z,2.90
2022-11-02T22:03:05.469Z,2.85
2022-11-02T22:06:07.669Z,3.38
2022-11-02T22:09:11.676Z,3.50
2022-11-02T22:12:31.885Z,7.50
2022-11-02T22:15:37.411Z,2.97
2022-11-02T22:18:40.550Z,3.78
2022-11-02T22:21:44.532Z,3.47
2022-11-02T22:24:46.630Z,3.38
2022-11-02T22:27:48.237Z,3.38
2022-11-02T22:30:49.747Z,3.45
2022-11-02T22:33:53.290Z,3.95
2022-11-02T22:37:14.805Z,4.25
2022-11-02T22:40:16.418Z,4.03
2022-11-02T22:43:17.951Z,3.80
2022-11-02T22:46:19.978Z,3.38
2022-11-02T22:49:21.514Z,3.47
2022-11-02T22:52:23.040Z,3.45
2022-11-02T22:55:24.650Z,3.25
2022-11-02T22:58:27.967Z,3.55
2022-11-02T23:01:31.051Z,3.10
2022-11-02T23:04:32.679Z,2.70
2022-11-02T23:07:34.170Z,2.85
2022-11-02T23:10:57.460Z,3.67
2022-11-02T23:14:01.361Z,3.40
2022-11-02T23:17:02.918Z,3.10
2022-11-02T23:20:04.914Z,2.60
2022-11-02T23:23:25.030Z,3.65
2022-11-02T23:26:26.539Z,3.05
2022-11-02T23:29:46.798Z,2.67
2022-11-02T23:32:49.645Z,2.67
2022-11-02T23:36:10.138Z,3.25
2022-11-02T23:39:30.555Z,3.03
2022-11-02T23:42:32.280Z,2.97
2022-11-02T23:45:34.538Z,5.05
2022-11-02T23:48:36.069Z,3.92
2022-11-02T23:51:56.495Z,2.95
2022-11-02T23:55:17.135Z,2.90
2022-11-02T23:58:18.638Z,2.78
